NCAR-RAP Real-Time Weather Data

Output produced by METARs form (23 February 2020  02:39 UTC)
found at http://weather.rap.ucar.edu/surface/
 
KFAR 230153Z 18007KT 10SM CLR M04/M07 A2978 RMK AO2 SLP100 T10441067
KFAR 230053Z 19007KT 10SM CLR M03/M06 A2977 RMK AO2 SLP099 T10331061
KFAR 222353Z 21006KT 10SM CLR M01/M05 A2977 RMK AO2 SLP098 T10061050 10022 21022 58002
KFAR 222253Z 22005KT 10SM CLR 01/M04 A2977 RMK AO2 SLP097 T00061039
KFAR 222230Z 21005KT 10SM CLR 01/M03 A2977 RMK AO2 T00061033
KFAR 222229Z 20005KT 10SM CLR 01/M03 A2977 RMK AO2 T00061033
KFAR 222153Z 22005KT 10SM CLR 01/M03 A2978 RMK AO2 SLP100 T00111033
KFAR 222053Z 19007KT 10SM CLR 01/M04 A2978 RMK AO2 SLP098 T00061039 56020
KFAR 221953Z AUTO 19008KT 10SM CLR M01/M05 A2980 RMK AO2 SLP104 T10061050
KFAR 221853Z AUTO 19008KT 10SM CLR M01/M06 A2982 RMK AO2 SLP112 T10061056
KFAR 221753Z AUTO 20008KT 10SM CLR M02/M06 A2984 RMK AO2 SLP121 T10221061 11022 21094 58004
KFAR 221653Z AUTO 18008KT 10SM CLR M04/M08 A2985 RMK AO2 SLP125 T10391078
KFAR 221553Z AUTO 16005KT 10SM CLR M06/M10 A2986 RMK AO2 SLP128 T10561100
KFAR 221453Z AUTO 17008KT 10SM CLR M07/M11 A2985 RMK AO2 SLP126 T10721106 56010
KFAR 221353Z 16008KT 10SM CLR M08/M11 A2986 RMK AO2 SLP128 T10831111
KFAR 221253Z 17008KT 10SM CLR M09/M12 A2987 RMK AO2 SLP130 T10891117
KFAR 221153Z 16007KT 10SM CLR M09/M12 A2989 RMK AO2 SLP137 T10941117 11078 21106 56014
KFAR 221053Z 18008KT 10SM CLR M10/M12 A2990 RMK AO2 SLP140 T11001122
KFAR 220953Z 18010KT 10SM CLR M09/M12 A2991 RMK AO2 SLP144 T10941117
KFAR 220853Z 17008KT 10SM CLR M08/M10 A2993 RMK AO2 SLP148 T10781100 56015
KFAR 220753Z 17007KT 10SM CLR M08/M10 A2995 RMK AO2 SLP155 T10781100
KFAR 220653Z 18009KT 10SM CLR M08/M11 A2995 RMK AO2 SLP158 T10831106
KFAR 220553Z 18009KT 10SM CLR M08/M10 A2997 RMK AO2 SLP165 T10781100 11011 21083 400111122 58009
KFAR 220453Z AUTO 18009KT 10SM CLR M07/M09 A2998 RMK AO2 SLP170 T10671089
KFAR 220353Z AUTO 17008KT 10SM CLR M07/M08 A3000 RMK AO2 SLP174 T10671083
KFAR 220253Z AUTO 18007KT 10SM CLR M06/M08 A3000 RMK AO2 SLP177 T10611078 58006
KFAR 220153Z AUTO 18009KT 10SM CLR M04/M07 A3002 RMK AO2 SLP182 T10441072
KFAR 220053Z AUTO 20006KT 10SM CLR M04/M07 A3002 RMK AO2 SLP185 T10391072
KFAR 212353Z AUTO 20009KT 10SM CLR M03/M06 A3002 RMK AO2 SLP182 T10281061 10011 21033 58005
KFAR 212253Z AUTO 21007KT 10SM CLR M01/M05 A3002 RMK AO2 SLP183 T10061050
KFAR 212153Z 23007KT 10SM CLR 01/M04 A3003 RMK AO2 SLP185 T00111044
KFAR 212053Z 23006KT 10SM CLR 01/M04 A3003 RMK AO2 SLP186 T00111044 55006
KFAR 211953Z 23008KT 10SM CLR 00/M06 A3003 RMK AO2 SLP185 T00001056
KFAR 211853Z 22008KT 10SM CLR M02/M07 A3004 RMK AO2 SLP190 T10171067
KFAR 211753Z 22009KT 10SM CLR M03/M08 A3005 RMK AO2 SLP194 T10281078 11028 21117 50004
KFAR 211653Z 23011KT 10SM CLR M04/M09 A3006 RMK AO2 SLP196 T10441094
KFAR 211553Z 21009KT 10SM CLR M06/M10 A3004 RMK AO2 SLP191 T10611100
KFAR 211453Z 19010KT 10SM CLR M11/M13 A3004 RMK AO2 SLP193 T11061128 55000
KFAR 211353Z 18008KT 10SM CLR M11/M13 A3004 RMK AO2 SLP192 T11061133
KFAR 211253Z 19011KT 10SM CLR M12/M13 A3002 RMK AO2 SLP187 T11171133
KFAR 211153Z 18015KT 10SM CLR M11/M13 A3004 RMK AO2 PRESFR SLP192 T11061128 11100 21122 56035
KFAR 211053Z 18012KT 10SM CLR M11/M13 A3006 RMK AO2 SLP200 T11061128
KFAR 210953Z 17013KT 10SM CLR M11/M13 A3009 RMK AO2 SLP209 T11061133
KFAR 210853Z 17012KT 10SM CLR M11/M13 A3015 RMK AO2 SLP228 T11111133 58033
KFAR 210753Z 18012KT 10SM CLR M12/M14 A3019 RMK AO2 SLP242 T11171139
KFAR 210653Z 17011KT 10SM CLR M12/M14 A3022 RMK AO2 SLP258 T11221144
KFAR 210553Z 10SM CLR M11/M13 A3025 RMK AO2 SLP265 T11061133 11089 21111 410721250 58035
KFAR 210453Z 18014KT 10SM CLR M10/M13 A3028 RMK AO2 SLP278 T11001128
KFAR 210353Z 18011KT 10SM CLR M11/M13 A3032 RMK AO2 SLP292 T11061133
KFAR 210253Z 10SM CLR M11/M13 A3035 RMK AO2 SLP304 T11061133 58022